sensor_id;sensor_type;location;lat;lon;timestamp;temperature;humidity
62464;SHT31;48512;48.552;9.380;2024-02-26T00:00:48;8.59;54.71
62464;SHT31;48512;48.552;9.380;2024-02-26T00:03:14;8.57;54.43
62464;SHT31;48512;48.552;9.380;2024-02-26T00:05:40;8.59;54.29
62464;SHT31;48512;48.552;9.380;2024-02-26T00:08:06;8.57;54.35
62464;SHT31;48512;48.552;9.380;2024-02-26T00:10:32;8.57;54.49
62464;SHT31;48512;48.552;9.380;2024-02-26T00:12:58;8.56;54.60
62464;SHT31;48512;48.552;9.380;2024-02-26T00:15:24;8.54;54.63
62464;SHT31;48512;48.552;9.380;2024-02-26T00:17:50;8.54;54.81
62464;SHT31;48512;48.552;9.380;2024-02-26T00:20:20;8.49;54.95
62464;SHT31;48512;48.552;9.380;2024-02-26T00:22:46;8.49;54.71
62464;SHT31;48512;48.552;9.380;2024-02-26T00:25:12;8.49;54.57
62464;SHT31;48512;48.552;9.380;2024-02-26T00:27:38;8.53;54.19
62464;SHT31;48512;48.552;9.380;2024-02-26T00:30:06;8.53;54.28
62464;SHT31;48512;48.552;9.380;2024-02-26T00:32:33;8.54;54.01
62464;SHT31;48512;48.552;9.380;2024-02-26T00:34:59;8.60;53.66
62464;SHT31;48512;48.552;9.380;2024-02-26T00:37:25;8.60;53.39
62464;SHT31;48512;48.552;9.380;2024-02-26T00:39:51;8.63;53.03
62464;SHT31;48512;48.552;9.380;2024-02-26T00:42:18;8.61;53.54
62464;SHT31;48512;48.552;9.380;2024-02-26T00:44:45;8.63;53.53
62464;SHT31;48512;48.552;9.380;2024-02-26T00:47:11;8.60;53.66
62464;SHT31;48512;48.552;9.380;2024-02-26T00:49:37;8.59;54.02
62464;SHT31;48512;48.552;9.380;2024-02-26T00:52:04;8.57;54.16
62464;SHT31;48512;48.552;9.380;2024-02-26T00:54:30;8.52;54.83
62464;SHT31;48512;48.552;9.380;2024-02-26T00:56:56;8.44;55.34
62464;SHT31;48512;48.552;9.380;2024-02-26T00:59:22;8.42;55.37
62464;SHT31;48512;48.552;9.380;2024-02-26T01:01:48;8.37;55.52
62464;SHT31;48512;48.552;9.380;2024-02-26T01:04:14;8.34;55.77
62464;SHT31;48512;48.552;9.380;2024-02-26T01:06:40;8.34;54.89
62464;SHT31;48512;48.552;9.380;2024-02-26T01:09:06;8.40;54.03
62464;SHT31;48512;48.552;9.380;2024-02-26T01:11:34;8.43;53.88
62464;SHT31;48512;48.552;9.380;2024-02-26T01:14:00;8.42;53.98
62464;SHT31;48512;48.552;9.380;2024-02-26T01:16:27;8.46;53.46
62464;SHT31;48512;48.552;9.380;2024-02-26T01:18:55;8.47;53.07
62464;SHT31;48512;48.552;9.380;2024-02-26T01:21:21;8.50;53.08
62464;SHT31;48512;48.552;9.380;2024-02-26T01:23:47;8.44;53.96
62464;SHT31;48512;48.552;9.380;2024-02-26T01:26:13;8.43;54.02
62464;SHT31;48512;48.552;9.380;2024-02-26T01:28:39;8.43;54.09
62464;SHT31;48512;48.552;9.380;2024-02-26T01:31:06;8.43;53.59
62464;SHT31;48512;48.552;9.380;2024-02-26T01:33:34;8.42;53.82
62464;SHT31;48512;48.552;9.380;2024-02-26T01:36:00;8.39;53.56
62464;SHT31;48512;48.552;9.380;2024-02-26T01:38:26;8.43;52.79
62464;SHT31;48512;48.552;9.380;2024-02-26T01:40:53;8.49;51.95
62464;SHT31;48512;48.552;9.380;2024-02-26T01:43:19;8.52;52.04
62464;SHT31;48512;48.552;9.380;2024-02-26T01:45:45;8.53;52.08
62464;SHT31;48512;48.552;9.380;2024-02-26T01:48:12;8.60;51.28
62464;SHT31;48512;48.552;9.380;2024-02-26T01:50:38;8.65;51.53
62464;SHT31;48512;48.552;9.380;2024-02-26T01:53:05;8.64;51.98
62464;SHT31;48512;48.552;9.380;2024-02-26T01:55:32;8.63;52.36
62464;SHT31;48512;48.552;9.380;2024-02-26T01:57:59;8.60;53.19
62464;SHT31;48512;48.552;9.380;2024-02-26T02:00:25;8.56;53.96
62464;SHT31;48512;48.552;9.380;2024-02-26T02:02:52;8.54;54.81
62464;SHT31;48512;48.552;9.380;2024-02-26T02:05:21;8.49;54.52
62464;SHT31;48512;48.552;9.380;2024-02-26T02:07:47;8.46;54.78
62464;SHT31;48512;48.552;9.380;2024-02-26T02:10:15;8.46;55.28
62464;SHT31;48512;48.552;9.380;2024-02-26T02:12:43;8.52;55.84
62464;SHT31;48512;48.552;9.380;2024-02-26T02:15:09;8.52;56.37
62464;SHT31;48512;48.552;9.380;2024-02-26T02:17:35;8.42;55.63
62464;SHT31;48512;48.552;9.380;2024-02-26T02:20:01;8.39;55.56
62464;SHT31;48512;48.552;9.380;2024-02-26T02:22:28;8.33;55.79
62464;SHT31;48512;48.552;9.380;2024-02-26T02:24:54;8.30;56.07
62464;SHT31;48512;48.552;9.380;2024-02-26T02:27:20;8.23;56.26
62464;SHT31;48512;48.552;9.380;2024-02-26T02:29:47;8.21;56.53
62464;SHT31;48512;48.552;9.380;2024-02-26T02:32:14;8.25;57.03
62464;SHT31;48512;48.552;9.380;2024-02-26T02:34:41;8.22;57.10
62464;SHT31;48512;48.552;9.380;2024-02-26T02:37:07;8.22;56.50
62464;SHT31;48512;48.552;9.380;2024-02-26T02:39:33;8.19;56.82
62464;SHT31;48512;48.552;9.380;2024-02-26T02:41:59;8.17;57.00
62464;SHT31;48512;48.552;9.380;2024-02-26T02:44:26;8.19;57.01
62464;SHT31;48512;48.552;9.380;2024-02-26T02:46:52;8.16;57.26
62464;SHT31;48512;48.552;9.380;2024-02-26T02:49:19;8.21;57.75
62464;SHT31;48512;48.552;9.380;2024-02-26T02:51:45;8.22;57.03
62464;SHT31;48512;48.552;9.380;2024-02-26T02:54:11;8.25;56.71
62464;SHT31;48512;48.552;9.380;2024-02-26T02:56:37;8.29;56.90
62464;SHT31;48512;48.552;9.380;2024-02-26T02:59:03;8.30;57.32
62464;SHT31;48512;48.552;9.380;2024-02-26T03:01:29;8.30;57.88
62464;SHT31;48512;48.552;9.380;2024-02-26T03:03:55;8.33;58.09
62464;SHT31;48512;48.552;9.380;2024-02-26T03:06:21;8.28;57.82
62464;SHT31;48512;48.552;9.380;2024-02-26T03:08:48;8.23;57.39
62464;SHT31;48512;48.552;9.380;2024-02-26T03:11:14;8.26;57.75
62464;SHT31;48512;48.552;9.380;2024-02-26T03:13:43;8.19;58.72
62464;SHT31;48512;48.552;9.380;2024-02-26T03:16:10;8.19;59.77
62464;SHT31;48512;48.552;9.380;2024-02-26T03:18:38;8.15;59.35
62464;SHT31;48512;48.552;9.380;2024-02-26T03:21:04;8.13;59.82
62464;SHT31;48512;48.552;9.380;2024-02-26T03:23:30;8.17;60.24
62464;SHT31;48512;48.552;9.380;2024-02-26T03:25:58;8.19;60.48
62464;SHT31;48512;48.552;9.380;2024-02-26T03:28:24;8.13;60.07
62464;SHT31;48512;48.552;9.380;2024-02-26T03:30:50;8.06;60.45
62464;SHT31;48512;48.552;9.380;2024-02-26T03:33:16;8.06;60.69
62464;SHT31;48512;48.552;9.380;2024-02-26T03:35:42;8.10;61.38
62464;SHT31;48512;48.552;9.380;2024-02-26T03:38:08;8.10;61.34
62464;SHT31;48512;48.552;9.380;2024-02-26T03:40:34;7.98;63.13
62464;SHT31;48512;48.552;9.380;2024-02-26T03:43:01;7.81;63.33
62464;SHT31;48512;48.552;9.380;2024-02-26T03:45:28;7.71;62.35
62464;SHT31;48512;48.552;9.380;2024-02-26T03:47:54;7.73;62.57
62464;SHT31;48512;48.552;9.380;2024-02-26T03:50:20;7.75;62.83
62464;SHT31;48512;48.552;9.380;2024-02-26T03:52:47;7.81;63.34
62464;SHT31;48512;48.552;9.380;2024-02-26T03:55:13;7.81;62.74
62464;SHT31;48512;48.552;9.380;2024-02-26T03:57:39;7.84;62.73
62464;SHT31;48512;48.552;9.380;2024-02-26T04:00:06;7.84;62.80
62464;SHT31;48512;48.552;9.380;2024-02-26T04:02:36;7.84;63.32
62464;SHT31;48512;48.552;9.380;2024-02-26T04:05:03;7.74;64.88
62464;SHT31;48512;48.552;9.380;2024-02-26T04:07:29;7.74;65.08
62464;SHT31;48512;48.552;9.380;2024-02-26T04:09:55;7.74;64.98
62464;SHT31;48512;48.552;9.380;2024-02-26T04:12:21;7.57;66.30
62464;SHT31;48512;48.552;9.380;2024-02-26T04:14:47;7.50;66.91
62464;SHT31;48512;48.552;9.380;2024-02-26T04:17:13;7.48;66.07
62464;SHT31;48512;48.552;9.380;2024-02-26T04:19:39;7.53;65.46
62464;SHT31;48512;48.552;9.380;2024-02-26T04:22:05;7.57;65.23
62464;SHT31;48512;48.552;9.380;2024-02-26T04:24:32;7.58;65.40
62464;SHT31;48512;48.552;9.380;2024-02-26T04:26:58;7.64;65.56
62464;SHT31;48512;48.552;9.380;2024-02-26T04:29:24;7.63;65.41
62464;SHT31;48512;48.552;9.380;2024-02-26T04:31:50;7.61;66.06
62464;SHT31;48512;48.552;9.380;2024-02-26T04:34:16;7.60;66.42
62464;SHT31;48512;48.552;9.380;2024-02-26T04:36:42;7.57;66.05
62464;SHT31;48512;48.552;9.380;2024-02-26T04:39:09;7.58;66.48
62464;SHT31;48512;48.552;9.380;2024-02-26T04:41:36;7.57;67.60
62464;SHT31;48512;48.552;9.380;2024-02-26T04:44:02;7.53;67.35
62464;SHT31;48512;48.552;9.380;2024-02-26T04:46:28;7.53;64.79
62464;SHT31;48512;48.552;9.380;2024-02-26T04:48:54;7.58;61.72
62464;SHT31;48512;48.552;9.380;2024-02-26T04:51:20;7.71;60.80
62464;SHT31;48512;48.552;9.380;2024-02-26T04:53:46;7.78;61.16
62464;SHT31;48512;48.552;9.380;2024-02-26T04:56:12;7.81;61.13
62464;SHT31;48512;48.552;9.380;2024-02-26T04:58:38;7.85;62.06
62464;SHT31;48512;48.552;9.380;2024-02-26T05:01:04;7.85;61.58
62464;SHT31;48512;48.552;9.380;2024-02-26T05:03:30;7.86;61.95
62464;SHT31;48512;48.552;9.380;2024-02-26T05:05:56;7.88;62.87
62464;SHT31;48512;48.552;9.380;2024-02-26T05:08:24;7.91;62.19
62464;SHT31;48512;48.552;9.380;2024-02-26T05:10:50;7.94;62.55
62464;SHT31;48512;48.552;9.380;2024-02-26T05:13:16;7.96;62.85
62464;SHT31;48512;48.552;9.380;2024-02-26T05:15:44;7.99;62.98
62464;SHT31;48512;48.552;9.380;2024-02-26T05:18:12;7.96;63.45
62464;SHT31;48512;48.552;9.380;2024-02-26T05:20:38;7.94;63.78
62464;SHT31;48512;48.552;9.380;2024-02-26T05:23:05;7.92;64.46
62464;SHT31;48512;48.552;9.380;2024-02-26T05:25:31;7.92;63.86
62464;SHT31;48512;48.552;9.380;2024-02-26T05:27:57;7.86;62.06
62464;SHT31;48512;48.552;9.380;2024-02-26T05:30:23;7.84;62.43
62464;SHT31;48512;48.552;9.380;2024-02-26T05:32:49;7.79;61.70
62464;SHT31;48512;48.552;9.380;2024-02-26T05:35:15;7.79;62.16
62464;SHT31;48512;48.552;9.380;2024-02-26T05:37:42;7.82;62.70
62464;SHT31;48512;48.552;9.380;2024-02-26T05:40:08;7.79;61.84
62464;SHT31;48512;48.552;9.380;2024-02-26T05:42:34;7.81;60.85
62464;SHT31;48512;48.552;9.380;2024-02-26T05:45:00;7.81;61.13
62464;SHT31;48512;48.552;9.380;2024-02-26T05:47:35;7.82;61.52
62464;SHT31;48512;48.552;9.380;2024-02-26T05:50:01;7.84;62.60
62464;SHT31;48512;48.552;9.380;2024-02-26T05:52:28;7.81;64.06
62464;SHT31;48512;48.552;9.380;2024-02-26T05:54:57;7.78;63.25
62464;SHT31;48512;48.552;9.380;2024-02-26T05:57:23;7.78;63.85
62464;SHT31;48512;48.552;9.380;2024-02-26T05:59:50;7.71;64.81
62464;SHT31;48512;48.552;9.380;2024-02-26T06:02:16;7.68;65.98
62464;SHT31;48512;48.552;9.380;2024-02-26T06:04:42;7.70;66.25
62464;SHT31;48512;48.552;9.380;2024-02-26T06:07:08;7.68;67.02
62464;SHT31;48512;48.552;9.380;2024-02-26T06:09:34;7.68;66.93
62464;SHT31;48512;48.552;9.380;2024-02-26T06:12:01;7.67;66.99
62464;SHT31;48512;48.552;9.380;2024-02-26T06:14:27;7.71;67.16
62464;SHT31;48512;48.552;9.380;2024-02-26T06:16:53;7.71;68.03
62464;SHT31;48512;48.552;9.380;2024-02-26T06:19:19;7.73;68.31
62464;SHT31;48512;48.552;9.380;2024-02-26T06:21:45;7.71;68.72
62464;SHT31;48512;48.552;9.380;2024-02-26T06:24:11;7.57;68.85
62464;SHT31;48512;48.552;9.380;2024-02-26T06:26:37;7.48;69.62
62464;SHT31;48512;48.552;9.380;2024-02-26T06:29:03;7.48;69.72
62464;SHT31;48512;48.552;9.380;2024-02-26T06:31:29;7.51;70.55
62464;SHT31;48512;48.552;9.380;2024-02-26T06:33:55;7.37;70.20
62464;SHT31;48512;48.552;9.380;2024-02-26T06:36:22;7.31;70.38
62464;SHT31;48512;48.552;9.380;2024-02-26T06:38:48;7.24;71.67
62464;SHT31;48512;48.552;9.380;2024-02-26T06:41:15;7.05;73.98
62464;SHT31;48512;48.552;9.380;2024-02-26T06:43:41;6.92;74.41
62464;SHT31;48512;48.552;9.380;2024-02-26T06:46:07;6.92;74.27
62464;SHT31;48512;48.552;9.380;2024-02-26T06:48:33;6.92;74.36
62464;SHT31;48512;48.552;9.380;2024-02-26T06:50:59;6.96;73.88
62464;SHT31;48512;48.552;9.380;2024-02-26T06:53:25;7.05;72.95
62464;SHT31;48512;48.552;9.380;2024-02-26T06:55:51;7.09;72.57
62464;SHT31;48512;48.552;9.380;2024-02-26T06:58:17;7.19;73.13
62464;SHT31;48512;48.552;9.380;2024-02-26T07:00:43;7.22;72.76
62464;SHT31;48512;48.552;9.380;2024-02-26T07:03:10;7.18;72.28
62464;SHT31;48512;48.552;9.380;2024-02-26T07:05:36;7.15;72.27
62464;SHT31;48512;48.552;9.380;2024-02-26T07:08:02;7.12;72.69
62464;SHT31;48512;48.552;9.380;2024-02-26T07:10:28;7.08;72.10
62464;SHT31;48512;48.552;9.380;2024-02-26T07:12:55;7.10;72.91
62464;SHT31;48512;48.552;9.380;2024-02-26T07:15:21;7.10;72.89
62464;SHT31;48512;48.552;9.380;2024-02-26T07:17:47;7.18;72.63
62464;SHT31;48512;48.552;9.380;2024-02-26T07:20:14;7.23;72.37
62464;SHT31;48512;48.552;9.380;2024-02-26T07:22:41;7.27;71.73
62464;SHT31;48512;48.552;9.380;2024-02-26T07:25:08;7.29;71.24
62464;SHT31;48512;48.552;9.380;2024-02-26T07:27:37;7.33;71.19
62464;SHT31;48512;48.552;9.380;2024-02-26T07:30:04;7.40;71.17
62464;SHT31;48512;48.552;9.380;2024-02-26T07:32:30;7.46;71.26
62464;SHT31;48512;48.552;9.380;2024-02-26T07:34:57;7.48;70.85
62464;SHT31;48512;48.552;9.380;2024-02-26T07:37:23;7.54;70.69
62464;SHT31;48512;48.552;9.380;2024-02-26T07:39:49;7.56;70.80
62464;SHT31;48512;48.552;9.380;2024-02-26T07:42:15;7.61;70.68
62464;SHT31;48512;48.552;9.380;2024-02-26T07:44:41;7.67;70.53
62464;SHT31;48512;48.552;9.380;2024-02-26T07:47:09;7.70;69.94
62464;SHT31;48512;48.552;9.380;2024-02-26T07:49:35;7.78;69.86
62464;SHT31;48512;48.552;9.380;2024-02-26T07:52:01;7.78;69.78
62464;SHT31;48512;48.552;9.380;2024-02-26T07:54:28;7.81;69.78
62464;SHT31;48512;48.552;9.380;2024-02-26T07:56:54;7.85;69.72
62464;SHT31;48512;48.552;9.380;2024-02-26T07:59:20;7.85;70.14
62464;SHT31;48512;48.552;9.380;2024-02-26T08:01:50;7.77;70.28
62464;SHT31;48512;48.552;9.380;2024-02-26T08:04:17;7.77;70.19
62464;SHT31;48512;48.552;9.380;2024-02-26T08:06:43;7.77;71.08
62464;SHT31;48512;48.552;9.380;2024-02-26T08:09:09;7.78;71.68
62464;SHT31;48512;48.552;9.380;2024-02-26T08:11:35;7.84;73.40
62464;SHT31;48512;48.552;9.380;2024-02-26T08:14:01;7.85;72.98
62464;SHT31;48512;48.552;9.380;2024-02-26T08:16:27;7.91;72.90
62464;SHT31;48512;48.552;9.380;2024-02-26T08:18:55;7.96;72.23
62464;SHT31;48512;48.552;9.380;2024-02-26T08:21:21;8.06;72.08
62464;SHT31;48512;48.552;9.380;2024-02-26T08:23:47;8.16;72.69
62464;SHT31;48512;48.552;9.380;2024-02-26T08:26:13;8.22;72.87
62464;SHT31;48512;48.552;9.380;2024-02-26T08:28:39;8.28;73.57
62464;SHT31;48512;48.552;9.380;2024-02-26T08:31:05;8.29;73.51
62464;SHT31;48512;48.552;9.380;2024-02-26T08:33:32;8.28;73.18
62464;SHT31;48512;48.552;9.380;2024-02-26T08:36:04;8.33;72.76
62464;SHT31;48512;48.552;9.380;2024-02-26T08:38:31;8.34;71.88
62464;SHT31;48512;48.552;9.380;2024-02-26T08:40:57;8.36;71.87
62464;SHT31;48512;48.552;9.380;2024-02-26T08:43:23;8.42;71.65
62464;SHT31;48512;48.552;9.380;2024-02-26T08:45:49;8.43;71.67
62464;SHT31;48512;48.552;9.380;2024-02-26T08:48:15;8.50;71.58
62464;SHT31;48512;48.552;9.380;2024-02-26T08:50:41;8.54;71.56
62464;SHT31;48512;48.552;9.380;2024-02-26T08:53:07;8.57;71.99
62464;SHT31;48512;48.552;9.380;2024-02-26T08:55:33;8.65;72.38
62464;SHT31;48512;48.552;9.380;2024-02-26T08:57:59;8.64;71.69
62464;SHT31;48512;48.552;9.380;2024-02-26T09:00:25;8.67;71.48
62464;SHT31;48512;48.552;9.380;2024-02-26T09:02:51;8.74;71.21
62464;SHT31;48512;48.552;9.380;2024-02-26T09:05:18;8.81;70.80
62464;SHT31;48512;48.552;9.380;2024-02-26T09:07:44;8.88;71.00
62464;SHT31;48512;48.552;9.380;2024-02-26T09:10:10;8.95;71.07
62464;SHT31;48512;48.552;9.380;2024-02-26T09:12:37;9.02;70.83
62464;SHT31;48512;48.552;9.380;2024-02-26T09:15:03;9.08;70.80
62464;SHT31;48512;48.552;9.380;2024-02-26T09:17:30;9.07;71.31
62464;SHT31;48512;48.552;9.380;2024-02-26T09:19:56;9.12;71.09
62464;SHT31;48512;48.552;9.380;2024-02-26T09:22:22;9.15;71.04
62464;SHT31;48512;48.552;9.380;2024-02-26T09:24:48;9.18;71.23
62464;SHT31;48512;48.552;9.380;2024-02-26T09:27:17;9.20;71.71
62464;SHT31;48512;48.552;9.380;2024-02-26T09:29:43;9.20;71.74
62464;SHT31;48512;48.552;9.380;2024-02-26T09:32:09;9.28;71.19
62464;SHT31;48512;48.552;9.380;2024-02-26T09:34:35;9.30;70.88
62464;SHT31;48512;48.552;9.380;2024-02-26T09:37:02;9.38;71.06
62464;SHT31;48512;48.552;9.380;2024-02-26T09:39:28;9.44;71.55
62464;SHT31;48512;48.552;9.380;2024-02-26T09:41:55;9.60;71.25
62464;SHT31;48512;48.552;9.380;2024-02-26T09:44:22;9.69;71.07
62464;SHT31;48512;48.552;9.380;2024-02-26T09:46:52;9.81;70.54
62464;SHT31;48512;48.552;9.380;2024-02-26T09:49:22;9.91;70.01
62464;SHT31;48512;48.552;9.380;2024-02-26T09:51:49;10.04;69.50
62464;SHT31;48512;48.552;9.380;2024-02-26T09:54:17;10.06;68.70
62464;SHT31;48512;48.552;9.380;2024-02-26T09:56:47;10.24;68.74
62464;SHT31;48512;48.552;9.380;2024-02-26T09:59:17;10.31;68.29
62464;SHT31;48512;48.552;9.380;2024-02-26T10:01:44;10.35;68.57
62464;SHT31;48512;48.552;9.380;2024-02-26T10:04:12;10.45;67.75
62464;SHT31;48512;48.552;9.380;2024-02-26T10:06:39;10.48;67.98
62464;SHT31;48512;48.552;9.380;2024-02-26T10:09:09;10.53;67.61
62464;SHT31;48512;48.552;9.380;2024-02-26T10:11:35;10.57;67.44
62464;SHT31;48512;48.552;9.380;2024-02-26T10:14:03;10.66;67.18
62464;SHT31;48512;48.552;9.380;2024-02-26T10:16:30;10.79;67.19
62464;SHT31;48512;48.552;9.380;2024-02-26T10:18:56;10.96;66.59
62464;SHT31;48512;48.552;9.380;2024-02-26T10:21:22;11.11;66.08
62464;SHT31;48512;48.552;9.380;2024-02-26T10:23:49;11.46;65.92
62464;SHT31;48512;48.552;9.380;2024-02-26T10:26:16;11.72;65.39
62464;SHT31;48512;48.552;9.380;2024-02-26T10:28:44;11.86;64.54
62464;SHT31;48512;48.552;9.380;2024-02-26T10:31:11;12.18;63.77
62464;SHT31;48512;48.552;9.380;2024-02-26T10:33:38;12.45;63.15
62464;SHT31;48512;48.552;9.380;2024-02-26T10:36:05;12.52;63.05
62464;SHT31;48512;48.552;9.380;2024-02-26T10:38:36;12.49;62.45
62464;SHT31;48512;48.552;9.380;2024-02-26T10:41:04;12.52;62.94
62464;SHT31;48512;48.552;9.380;2024-02-26T10:43:30;12.70;62.37
62464;SHT31;48512;48.552;9.380;2024-02-26T10:45:57;12.79;62.11
62464;SHT31;48512;48.552;9.380;2024-02-26T10:48:23;12.69;61.27
62464;SHT31;48512;48.552;9.380;2024-02-26T10:50:49;12.86;61.39
62464;SHT31;48512;48.552;9.380;2024-02-26T10:53:17;12.93;61.76
62464;SHT31;48512;48.552;9.380;2024-02-26T10:55:57;12.90;61.30
62464;SHT31;48512;48.552;9.380;2024-02-26T10:58:25;12.95;61.82
62464;SHT31;48512;48.552;9.380;2024-02-26T11:00:52;12.90;61.52
62464;SHT31;48512;48.552;9.380;2024-02-26T11:03:19;12.90;61.15
62464;SHT31;48512;48.552;9.380;2024-02-26T11:05:48;12.90;60.58
62464;SHT31;48512;48.552;9.380;2024-02-26T11:08:18;12.89;60.26
62464;SHT31;48512;48.552;9.380;2024-02-26T11:10:47;12.86;60.44
62464;SHT31;48512;48.552;9.380;2024-02-26T11:13:15;13.55;68.50
62464;SHT31;48512;48.552;9.380;2024-02-26T11:15:43;13.72;60.87
62464;SHT31;48512;48.552;9.380;2024-02-26T11:18:10;13.65;59.57
62464;SHT31;48512;48.552;9.380;2024-02-26T11:20:38;13.48;59.78
62464;SHT31;48512;48.552;9.380;2024-02-26T11:23:06;13.40;59.43
62464;SHT31;48512;48.552;9.380;2024-02-26T11:25:33;13.34;59.84
62464;SHT31;48512;48.552;9.380;2024-02-26T11:28:02;13.30;60.14
62464;SHT31;48512;48.552;9.380;2024-02-26T11:30:32;13.26;60.28
62464;SHT31;48512;48.552;9.380;2024-02-26T11:32:59;13.28;60.22
62464;SHT31;48512;48.552;9.380;2024-02-26T11:35:25;13.23;60.30
62464;SHT31;48512;48.552;9.380;2024-02-26T11:37:53;13.21;60.39
62464;SHT31;48512;48.552;9.380;2024-02-26T11:40:20;13.26;60.17
62464;SHT31;48512;48.552;9.380;2024-02-26T11:42:47;13.21;60.11
62464;SHT31;48512;48.552;9.380;2024-02-26T11:48:14;13.14;59.84
62464;SHT31;48512;48.552;9.380;2024-02-26T11:50:41;13.20;59.69
62464;SHT31;48512;48.552;9.380;2024-02-26T11:53:32;13.18;59.91
62464;SHT31;48512;48.552;9.380;2024-02-26T11:58:53;13.20;59.19
62464;SHT31;48512;48.552;9.380;2024-02-26T12:01:39;13.27;60.05
62464;SHT31;48512;48.552;9.380;2024-02-26T12:04:26;13.21;59.35
62464;SHT31;48512;48.552;9.380;2024-02-26T12:06:56;13.30;59.57
62464;SHT31;48512;48.552;9.380;2024-02-26T12:12:05;13.44;59.38
62464;SHT31;48512;48.552;9.380;2024-02-26T12:17:07;13.68;59.07
62464;SHT31;48512;48.552;9.380;2024-02-26T12:19:35;13.74;60.17
62464;SHT31;48512;48.552;9.380;2024-02-26T12:22:02;13.81;59.86
62464;SHT31;48512;48.552;9.380;2024-02-26T12:24:28;13.90;59.67
62464;SHT31;48512;48.552;9.380;2024-02-26T12:26:54;14.01;59.47
62464;SHT31;48512;48.552;9.380;2024-02-26T12:29:21;14.02;59.47
62464;SHT31;48512;48.552;9.380;2024-02-26T12:31:47;14.48;72.25
62464;SHT31;48512;48.552;9.380;2024-02-26T12:34:14;14.77;61.11
62464;SHT31;48512;48.552;9.380;2024-02-26T12:36:42;14.68;58.73
62464;SHT31;48512;48.552;9.380;2024-02-26T12:39:09;14.65;58.38
62464;SHT31;48512;48.552;9.380;2024-02-26T12:41:35;14.63;58.07
62464;SHT31;48512;48.552;9.380;2024-02-26T12:44:02;14.56;58.65
62464;SHT31;48512;48.552;9.380;2024-02-26T12:46:28;14.69;57.86
62464;SHT31;48512;48.552;9.380;2024-02-26T12:48:58;14.75;58.29
62464;SHT31;48512;48.552;9.380;2024-02-26T12:51:25;15.05;57.64
62464;SHT31;48512;48.552;9.380;2024-02-26T12:53:54;15.00;57.35
62464;SHT31;48512;48.552;9.380;2024-02-26T12:56:22;14.99;57.73
62464;SHT31;48512;48.552;9.380;2024-02-26T12:58:50;15.12;57.62
62464;SHT31;48512;48.552;9.380;2024-02-26T13:01:18;15.02;57.43
62464;SHT31;48512;48.552;9.380;2024-02-26T13:03:45;15.03;57.80
62464;SHT31;48512;48.552;9.380;2024-02-26T13:06:12;14.84;56.55
62464;SHT31;48512;48.552;9.380;2024-02-26T13:08:38;14.77;57.25
62464;SHT31;48512;48.552;9.380;2024-02-26T13:11:05;14.67;56.79
62464;SHT31;48512;48.552;9.380;2024-02-26T13:13:31;14.58;57.70
62464;SHT31;48512;48.552;9.380;2024-02-26T13:16:08;14.56;57.46
62464;SHT31;48512;48.552;9.380;2024-02-26T13:18:34;14.50;56.90
62464;SHT31;48512;48.552;9.380;2024-02-26T13:21:14;14.44;55.86
62464;SHT31;48512;48.552;9.380;2024-02-26T13:23:41;14.44;55.53
62464;SHT31;48512;48.552;9.380;2024-02-26T13:26:08;14.44;55.95
62464;SHT31;48512;48.552;9.380;2024-02-26T13:28:35;14.44;55.50
62464;SHT31;48512;48.552;9.380;2024-02-26T13:31:01;14.41;54.96
62464;SHT31;48512;48.552;9.380;2024-02-26T13:33:28;14.34;55.26
62464;SHT31;48512;48.552;9.380;2024-02-26T13:35:55;14.33;55.43
62464;SHT31;48512;48.552;9.380;2024-02-26T13:38:22;14.31;55.45
62464;SHT31;48512;48.552;9.380;2024-02-26T13:40:49;14.26;55.11
62464;SHT31;48512;48.552;9.380;2024-02-26T13:43:16;14.14;52.43
62464;SHT31;48512;48.552;9.380;2024-02-26T13:45:42;14.13;51.43
62464;SHT31;48512;48.552;9.380;2024-02-26T13:48:09;13.99;51.54
62464;SHT31;48512;48.552;9.380;2024-02-26T13:50:39;13.90;50.82
62464;SHT31;48512;48.552;9.380;2024-02-26T13:53:05;13.92;52.25
62464;SHT31;48512;48.552;9.380;2024-02-26T13:55:31;14.03;51.77
62464;SHT31;48512;48.552;9.380;2024-02-26T13:57:59;14.14;52.37
62464;SHT31;48512;48.552;9.380;2024-02-26T14:00:28;14.26;53.91
62464;SHT31;48512;48.552;9.380;2024-02-26T14:02:55;14.40;54.44
62464;SHT31;48512;48.552;9.380;2024-02-26T14:05:21;14.44;55.05
62464;SHT31;48512;48.552;9.380;2024-02-26T14:07:47;14.52;55.30
62464;SHT31;48512;48.552;9.380;2024-02-26T14:10:13;14.58;55.35
62464;SHT31;48512;48.552;9.380;2024-02-26T14:12:39;14.72;54.14
62464;SHT31;48512;48.552;9.380;2024-02-26T14:15:07;14.78;54.30
62464;SHT31;48512;48.552;9.380;2024-02-26T14:17:33;14.84;53.53
62464;SHT31;48512;48.552;9.380;2024-02-26T14:19:59;14.87;54.33
62464;SHT31;48512;48.552;9.380;2024-02-26T14:22:26;14.84;52.91
62464;SHT31;48512;48.552;9.380;2024-02-26T14:24:57;14.91;53.36
62464;SHT31;48512;48.552;9.380;2024-02-26T14:27:23;15.09;52.70
62464;SHT31;48512;48.552;9.380;2024-02-26T14:29:49;15.19;53.34
62464;SHT31;48512;48.552;9.380;2024-02-26T14:32:15;15.29;52.79
62464;SHT31;48512;48.552;9.380;2024-02-26T14:34:42;15.27;51.78
62464;SHT31;48512;48.552;9.380;2024-02-26T14:37:08;15.15;51.12
62464;SHT31;48512;48.552;9.380;2024-02-26T14:39:34;15.16;50.79
62464;SHT31;48512;48.552;9.380;2024-02-26T14:42:01;15.09;50.60
62464;SHT31;48512;48.552;9.380;2024-02-26T14:44:27;14.84;50.66
62464;SHT31;48512;48.552;9.380;2024-02-26T14:46:53;14.85;51.22
62464;SHT31;48512;48.552;9.380;2024-02-26T14:49:19;14.79;51.54
62464;SHT31;48512;48.552;9.380;2024-02-26T14:51:45;14.74;51.43
62464;SHT31;48512;48.552;9.380;2024-02-26T14:54:12;14.65;51.96
62464;SHT31;48512;48.552;9.380;2024-02-26T14:56:39;14.65;51.53
62464;SHT31;48512;48.552;9.380;2024-02-26T14:59:05;14.63;51.35
62464;SHT31;48512;48.552;9.380;2024-02-26T15:01:32;14.61;51.75
62464;SHT31;48512;48.552;9.380;2024-02-26T15:03:59;14.52;51.95
62464;SHT31;48512;48.552;9.380;2024-02-26T15:06:25;14.42;52.60
62464;SHT31;48512;48.552;9.380;2024-02-26T15:08:52;14.41;52.79
62464;SHT31;48512;48.552;9.380;2024-02-26T15:11:18;14.37;52.93
62464;SHT31;48512;48.552;9.380;2024-02-26T15:13:44;14.31;52.21
62464;SHT31;48512;48.552;9.380;2024-02-26T15:16:20;14.31;52.25
62464;SHT31;48512;48.552;9.380;2024-02-26T15:18:49;14.23;52.71
62464;SHT31;48512;48.552;9.380;2024-02-26T15:21:15;14.20;53.93
62464;SHT31;48512;48.552;9.380;2024-02-26T15:23:44;14.13;55.13
62464;SHT31;48512;48.552;9.380;2024-02-26T15:26:11;14.08;54.85
62464;SHT31;48512;48.552;9.380;2024-02-26T15:28:37;14.01;54.90
62464;SHT31;48512;48.552;9.380;2024-02-26T15:31:04;13.95;54.45
62464;SHT31;48512;48.552;9.380;2024-02-26T15:33:30;13.89;53.86
62464;SHT31;48512;48.552;9.380;2024-02-26T15:35:57;13.82;53.63
62464;SHT31;48512;48.552;9.380;2024-02-26T15:38:23;13.79;54.41
62464;SHT31;48512;48.552;9.380;2024-02-26T15:40:49;13.75;55.39
62464;SHT31;48512;48.552;9.380;2024-02-26T15:43:16;13.66;56.65
62464;SHT31;48512;48.552;9.380;2024-02-26T15:45:42;13.58;58.18
62464;SHT31;48512;48.552;9.380;2024-02-26T15:48:08;13.55;58.79